sensor_id;sensor_type;location;lat;lon;timestamp;P1;durP1;ratioP1;P2;durP2;ratioP2
22176;SDS011;11254;50.098;8.726;2023-06-24T00:01:34;9.77;;;5.97;;
22176;SDS011;11254;50.098;8.726;2023-06-24T00:04:04;9.02;;;5.32;;
22176;SDS011;11254;50.098;8.726;2023-06-24T00:06:33;11.65;;;5.60;;
22176;SDS011;11254;50.098;8.726;2023-06-24T00:09:03;8.70;;;5.72;;
22176;SDS011;11254;50.098;8.726;2023-06-24T00:11:33;9.40;;;5.70;;
22176;SDS011;11254;50.098;8.726;2023-06-24T00:14:03;9.70;;;5.63;;
22176;SDS011;11254;50.098;8.726;2023-06-24T00:16:33;11.85;;;6.18;;
22176;SDS011;11254;50.098;8.726;2023-06-24T00:19:02;8.82;;;5.70;;
22176;SDS011;11254;50.098;8.726;2023-06-24T00:21:30;9.00;;;6.05;;
22176;SDS011;11254;50.098;8.726;2023-06-24T00:23:59;10.27;;;5.85;;
22176;SDS011;11254;50.098;8.726;2023-06-24T00:26:31;9.45;;;5.88;;
22176;SDS011;11254;50.098;8.726;2023-06-24T00:28:59;9.80;;;6.15;;
22176;SDS011;11254;50.098;8.726;2023-06-24T00:31:29;11.02;;;6.38;;
22176;SDS011;11254;50.098;8.726;2023-06-24T00:33:57;10.82;;;6.13;;
22176;SDS011;11254;50.098;8.726;2023-06-24T00:36:26;10.25;;;6.60;;
22176;SDS011;11254;50.098;8.726;2023-06-24T00:38:55;12.23;;;6.25;;
22176;SDS011;11254;50.098;8.726;2023-06-24T00:41:28;9.45;;;6.00;;
22176;SDS011;11254;50.098;8.726;2023-06-24T00:43:57;10.10;;;6.50;;
22176;SDS011;11254;50.098;8.726;2023-06-24T00:46:26;11.65;;;6.80;;
22176;SDS011;11254;50.098;8.726;2023-06-24T00:48:57;11.88;;;6.30;;
22176;SDS011;11254;50.098;8.726;2023-06-24T00:51:27;10.30;;;6.78;;
22176;SDS011;11254;50.098;8.726;2023-06-24T00:53:59;11.85;;;6.95;;
22176;SDS011;11254;50.098;8.726;2023-06-24T00:56:29;9.65;;;6.10;;
22176;SDS011;11254;50.098;8.726;2023-06-24T00:58:59;8.75;;;6.28;;
22176;SDS011;11254;50.098;8.726;2023-06-24T01:01:29;13.10;;;6.85;;
22176;SDS011;11254;50.098;8.726;2023-06-24T01:04:01;11.00;;;6.38;;
22176;SDS011;11254;50.098;8.726;2023-06-24T01:06:30;9.48;;;6.95;;
22176;SDS011;11254;50.098;8.726;2023-06-24T01:08:59;11.38;;;7.07;;
22176;SDS011;11254;50.098;8.726;2023-06-24T01:11:29;10.57;;;7.18;;
22176;SDS011;11254;50.098;8.726;2023-06-24T01:13:59;11.55;;;7.60;;
22176;SDS011;11254;50.098;8.726;2023-06-24T01:16:29;11.90;;;6.75;;
22176;SDS011;11254;50.098;8.726;2023-06-24T01:19:04;11.38;;;7.30;;
22176;SDS011;11254;50.098;8.726;2023-06-24T01:21:39;10.07;;;7.32;;
22176;SDS011;11254;50.098;8.726;2023-06-24T01:24:15;11.98;;;7.28;;
22176;SDS011;11254;50.098;8.726;2023-06-24T01:29:42;11.93;;;7.45;;
22176;SDS011;11254;50.098;8.726;2023-06-24T01:32:23;11.27;;;7.18;;
22176;SDS011;11254;50.098;8.726;2023-06-24T01:34:56;10.25;;;6.95;;
22176;SDS011;11254;50.098;8.726;2023-06-24T01:37:26;14.10;;;7.70;;
22176;SDS011;11254;50.098;8.726;2023-06-24T01:39:57;10.98;;;7.22;;
22176;SDS011;11254;50.098;8.726;2023-06-24T01:42:34;10.70;;;7.72;;
22176;SDS011;11254;50.098;8.726;2023-06-24T01:45:06;11.35;;;7.20;;
22176;SDS011;11254;50.098;8.726;2023-06-24T01:47:36;12.32;;;7.25;;
22176;SDS011;11254;50.098;8.726;2023-06-24T01:50:06;12.18;;;7.43;;
22176;SDS011;11254;50.098;8.726;2023-06-24T01:52:35;10.60;;;7.60;;
22176;SDS011;11254;50.098;8.726;2023-06-24T01:55:07;12.55;;;7.72;;
22176;SDS011;11254;50.098;8.726;2023-06-24T01:57:36;12.25;;;7.13;;
22176;SDS011;11254;50.098;8.726;2023-06-24T02:00:05;11.02;;;7.60;;
22176;SDS011;11254;50.098;8.726;2023-06-24T02:02:48;10.85;;;7.20;;
22176;SDS011;11254;50.098;8.726;2023-06-24T02:05:18;10.18;;;7.03;;
22176;SDS011;11254;50.098;8.726;2023-06-24T02:07:46;14.25;;;7.35;;
22176;SDS011;11254;50.098;8.726;2023-06-24T02:10:16;13.52;;;7.20;;
22176;SDS011;11254;50.098;8.726;2023-06-24T02:12:46;11.07;;;7.78;;
22176;SDS011;11254;50.098;8.726;2023-06-24T02:15:16;11.32;;;7.40;;
22176;SDS011;11254;50.098;8.726;2023-06-24T02:17:44;13.30;;;7.45;;
22176;SDS011;11254;50.098;8.726;2023-06-24T02:20:15;10.73;;;6.90;;
22176;SDS011;11254;50.098;8.726;2023-06-24T02:22:44;11.75;;;7.13;;
22176;SDS011;11254;50.098;8.726;2023-06-24T02:25:13;9.88;;;6.78;;
22176;SDS011;11254;50.098;8.726;2023-06-24T02:27:41;11.02;;;6.90;;
22176;SDS011;11254;50.098;8.726;2023-06-24T02:30:12;10.95;;;7.15;;
22176;SDS011;11254;50.098;8.726;2023-06-24T02:32:41;11.85;;;7.15;;
22176;SDS011;11254;50.098;8.726;2023-06-24T02:35:09;12.07;;;7.72;;
22176;SDS011;11254;50.098;8.726;2023-06-24T02:37:39;11.48;;;7.05;;
22176;SDS011;11254;50.098;8.726;2023-06-24T02:40:08;10.60;;;7.03;;
22176;SDS011;11254;50.098;8.726;2023-06-24T02:42:37;11.32;;;6.80;;
22176;SDS011;11254;50.098;8.726;2023-06-24T02:45:06;10.18;;;7.13;;
22176;SDS011;11254;50.098;8.726;2023-06-24T02:47:35;10.60;;;7.00;;
22176;SDS011;11254;50.098;8.726;2023-06-24T02:50:05;10.02;;;6.60;;
22176;SDS011;11254;50.098;8.726;2023-06-24T02:52:35;9.82;;;6.70;;
22176;SDS011;11254;50.098;8.726;2023-06-24T02:55:07;11.00;;;7.47;;
22176;SDS011;11254;50.098;8.726;2023-06-24T02:57:45;12.82;;;7.75;;
22176;SDS011;11254;50.098;8.726;2023-06-24T03:00:23;12.05;;;7.20;;
22176;SDS011;11254;50.098;8.726;2023-06-24T03:03:12;11.30;;;7.18;;
22176;SDS011;11254;50.098;8.726;2023-06-24T03:05:49;11.35;;;7.95;;
22176;SDS011;11254;50.098;8.726;2023-06-24T03:08:19;11.32;;;7.30;;
22176;SDS011;11254;50.098;8.726;2023-06-24T03:10:51;10.38;;;7.30;;
22176;SDS011;11254;50.098;8.726;2023-06-24T03:13:22;11.77;;;7.53;;
22176;SDS011;11254;50.098;8.726;2023-06-24T03:16:11;11.02;;;7.65;;
22176;SDS011;11254;50.098;8.726;2023-06-24T03:18:50;13.15;;;7.72;;
22176;SDS011;11254;50.098;8.726;2023-06-24T03:21:19;13.52;;;7.95;;
22176;SDS011;11254;50.098;8.726;2023-06-24T03:24:00;12.55;;;8.20;;
22176;SDS011;11254;50.098;8.726;2023-06-24T03:26:33;11.30;;;7.72;;
22176;SDS011;11254;50.098;8.726;2023-06-24T03:29:03;13.82;;;7.85;;
22176;SDS011;11254;50.098;8.726;2023-06-24T03:31:34;10.60;;;7.50;;
22176;SDS011;11254;50.098;8.726;2023-06-24T03:34:02;13.38;;;8.07;;
22176;SDS011;11254;50.098;8.726;2023-06-24T03:36:31;10.93;;;7.63;;
22176;SDS011;11254;50.098;8.726;2023-06-24T03:39:01;11.18;;;7.32;;
22176;SDS011;11254;50.098;8.726;2023-06-24T03:41:30;10.48;;;7.05;;
22176;SDS011;11254;50.098;8.726;2023-06-24T03:44:00;10.43;;;7.30;;
22176;SDS011;11254;50.098;8.726;2023-06-24T03:46:29;12.85;;;8.20;;
22176;SDS011;11254;50.098;8.726;2023-06-24T03:48:59;12.05;;;8.13;;
22176;SDS011;11254;50.098;8.726;2023-06-24T03:51:28;12.60;;;8.45;;
22176;SDS011;11254;50.098;8.726;2023-06-24T03:53:57;12.05;;;7.88;;
22176;SDS011;11254;50.098;8.726;2023-06-24T03:56:26;11.57;;;8.25;;
22176;SDS011;11254;50.098;8.726;2023-06-24T03:58:55;10.82;;;7.53;;
22176;SDS011;11254;50.098;8.726;2023-06-24T04:01:26;13.25;;;8.27;;
22176;SDS011;11254;50.098;8.726;2023-06-24T04:03:58;11.80;;;8.05;;
22176;SDS011;11254;50.098;8.726;2023-06-24T04:06:26;10.80;;;7.97;;
22176;SDS011;11254;50.098;8.726;2023-06-24T04:08:55;14.50;;;8.57;;
22176;SDS011;11254;50.098;8.726;2023-06-24T04:11:23;11.70;;;8.00;;
22176;SDS011;11254;50.098;8.726;2023-06-24T04:13:51;13.88;;;8.05;;
22176;SDS011;11254;50.098;8.726;2023-06-24T04:16:20;11.55;;;7.95;;
22176;SDS011;11254;50.098;8.726;2023-06-24T04:18:50;13.55;;;8.65;;
22176;SDS011;11254;50.098;8.726;2023-06-24T04:21:18;13.15;;;8.30;;
22176;SDS011;11254;50.098;8.726;2023-06-24T04:23:49;13.63;;;8.93;;
22176;SDS011;11254;50.098;8.726;2023-06-24T04:26:18;13.52;;;8.35;;
22176;SDS011;11254;50.098;8.726;2023-06-24T04:28:46;12.23;;;8.90;;
22176;SDS011;11254;50.098;8.726;2023-06-24T04:31:15;13.02;;;8.63;;
22176;SDS011;11254;50.098;8.726;2023-06-24T04:33:44;14.68;;;8.02;;
22176;SDS011;11254;50.098;8.726;2023-06-24T04:36:14;14.23;;;8.73;;
22176;SDS011;11254;50.098;8.726;2023-06-24T04:38:42;12.40;;;9.02;;
22176;SDS011;11254;50.098;8.726;2023-06-24T04:41:11;12.73;;;9.23;;
22176;SDS011;11254;50.098;8.726;2023-06-24T04:43:39;13.73;;;8.30;;
22176;SDS011;11254;50.098;8.726;2023-06-24T04:46:08;14.05;;;9.25;;
22176;SDS011;11254;50.098;8.726;2023-06-24T04:48:36;14.52;;;8.32;;
22176;SDS011;11254;50.098;8.726;2023-06-24T04:51:04;12.00;;;8.35;;
22176;SDS011;11254;50.098;8.726;2023-06-24T04:53:34;14.60;;;9.23;;
22176;SDS011;11254;50.098;8.726;2023-06-24T04:56:03;13.52;;;8.68;;
22176;SDS011;11254;50.098;8.726;2023-06-24T04:58:31;12.65;;;8.70;;
22176;SDS011;11254;50.098;8.726;2023-06-24T05:00:59;13.70;;;8.88;;
22176;SDS011;11254;50.098;8.726;2023-06-24T05:03:28;13.50;;;7.90;;
22176;SDS011;11254;50.098;8.726;2023-06-24T05:05:56;15.93;;;9.55;;
22176;SDS011;11254;50.098;8.726;2023-06-24T05:08:25;12.57;;;8.10;;
22176;SDS011;11254;50.098;8.726;2023-06-24T05:10:54;16.35;;;8.40;;
22176;SDS011;11254;50.098;8.726;2023-06-24T05:13:23;14.98;;;8.65;;
22176;SDS011;11254;50.098;8.726;2023-06-24T05:15:51;12.27;;;7.97;;
22176;SDS011;11254;50.098;8.726;2023-06-24T05:18:20;12.93;;;8.68;;
22176;SDS011;11254;50.098;8.726;2023-06-24T05:20:48;16.77;;;9.15;;
22176;SDS011;11254;50.098;8.726;2023-06-24T05:23:16;16.83;;;9.63;;
22176;SDS011;11254;50.098;8.726;2023-06-24T05:25:45;14.48;;;9.35;;
22176;SDS011;11254;50.098;8.726;2023-06-24T05:28:15;10.98;;;7.93;;
22176;SDS011;11254;50.098;8.726;2023-06-24T05:30:44;14.32;;;8.52;;
22176;SDS011;11254;50.098;8.726;2023-06-24T05:33:12;12.32;;;8.40;;
22176;SDS011;11254;50.098;8.726;2023-06-24T05:35:42;13.60;;;8.52;;
22176;SDS011;11254;50.098;8.726;2023-06-24T05:38:11;14.50;;;9.10;;
22176;SDS011;11254;50.098;8.726;2023-06-24T05:40:39;11.63;;;8.20;;
22176;SDS011;11254;50.098;8.726;2023-06-24T05:43:07;13.88;;;8.63;;
22176;SDS011;11254;50.098;8.726;2023-06-24T05:45:38;12.82;;;8.93;;
22176;SDS011;11254;50.098;8.726;2023-06-24T05:48:06;13.02;;;9.05;;
22176;SDS011;11254;50.098;8.726;2023-06-24T05:50:35;11.30;;;7.63;;
22176;SDS011;11254;50.098;8.726;2023-06-24T11:53:03;6.47;;;4.33;;
22176;SDS011;11254;50.098;8.726;2023-06-24T11:55:32;8.05;;;4.80;;
22176;SDS011;11254;50.098;8.726;2023-06-24T11:58:01;7.72;;;5.00;;
22176;SDS011;11254;50.098;8.726;2023-06-24T12:00:31;7.80;;;4.88;;
22176;SDS011;11254;50.098;8.726;2023-06-24T12:03:01;6.13;;;4.32;;
22176;SDS011;11254;50.098;8.726;2023-06-24T12:05:32;7.18;;;4.47;;
22176;SDS011;11254;50.098;8.726;2023-06-24T12:08:01;7.28;;;4.72;;
22176;SDS011;11254;50.098;8.726;2023-06-24T12:10:32;6.35;;;4.57;;
22176;SDS011;11254;50.098;8.726;2023-06-24T12:13:01;6.47;;;4.15;;
22176;SDS011;11254;50.098;8.726;2023-06-24T12:15:32;8.55;;;4.90;;
22176;SDS011;11254;50.098;8.726;2023-06-24T12:18:01;7.65;;;4.68;;
22176;SDS011;11254;50.098;8.726;2023-06-24T12:20:30;7.15;;;4.90;;
22176;SDS011;11254;50.098;8.726;2023-06-24T12:23:07;7.95;;;4.72;;
22176;SDS011;11254;50.098;8.726;2023-06-24T12:25:37;7.28;;;5.10;;
22176;SDS011;11254;50.098;8.726;2023-06-24T12:28:05;7.45;;;5.03;;
22176;SDS011;11254;50.098;8.726;2023-06-24T12:30:33;8.55;;;5.30;;
22176;SDS011;11254;50.098;8.726;2023-06-24T12:33:02;7.35;;;4.97;;
22176;SDS011;11254;50.098;8.726;2023-06-24T12:35:31;8.27;;;5.00;;
22176;SDS011;11254;50.098;8.726;2023-06-24T12:37:59;8.57;;;4.53;;
22176;SDS011;11254;50.098;8.726;2023-06-24T12:40:27;9.45;;;5.03;;
22176;SDS011;11254;50.098;8.726;2023-06-24T12:42:57;6.70;;;5.00;;
22176;SDS011;11254;50.098;8.726;2023-06-24T12:45:26;7.53;;;5.05;;
22176;SDS011;11254;50.098;8.726;2023-06-24T12:47:54;7.93;;;5.40;;
22176;SDS011;11254;50.098;8.726;2023-06-24T12:50:23;6.70;;;4.82;;
22176;SDS011;11254;50.098;8.726;2023-06-24T12:52:52;8.93;;;4.93;;
22176;SDS011;11254;50.098;8.726;2023-06-24T12:55:20;8.35;;;5.65;;
22176;SDS011;11254;50.098;8.726;2023-06-24T12:57:48;7.82;;;4.78;;
22176;SDS011;11254;50.098;8.726;2023-06-24T13:00:20;6.90;;;4.78;;
22176;SDS011;11254;50.098;8.726;2023-06-24T13:02:48;6.55;;;4.50;;
22176;SDS011;11254;50.098;8.726;2023-06-24T13:05:17;7.32;;;4.68;;
22176;SDS011;11254;50.098;8.726;2023-06-24T13:07:45;7.13;;;4.65;;
22176;SDS011;11254;50.098;8.726;2023-06-24T13:10:14;8.27;;;4.60;;
22176;SDS011;11254;50.098;8.726;2023-06-24T13:12:42;6.97;;;4.95;;
22176;SDS011;11254;50.098;8.726;2023-06-24T13:15:11;7.88;;;4.60;;
22176;SDS011;11254;50.098;8.726;2023-06-24T13:17:41;6.28;;;4.72;;
22176;SDS011;11254;50.098;8.726;2023-06-24T13:20:10;10.05;;;5.07;;
22176;SDS011;11254;50.098;8.726;2023-06-24T13:22:39;6.85;;;4.93;;
22176;SDS011;11254;50.098;8.726;2023-06-24T13:25:07;7.30;;;5.00;;
22176;SDS011;11254;50.098;8.726;2023-06-24T13:27:36;7.45;;;4.68;;
22176;SDS011;11254;50.098;8.726;2023-06-24T13:30:07;9.25;;;4.63;;
22176;SDS011;11254;50.098;8.726;2023-06-24T13:32:36;8.65;;;4.85;;
22176;SDS011;11254;50.098;8.726;2023-06-24T13:35:06;7.97;;;5.00;;
22176;SDS011;11254;50.098;8.726;2023-06-24T13:37:35;7.38;;;5.00;;
22176;SDS011;11254;50.098;8.726;2023-06-24T13:40:06;6.82;;;5.10;;
22176;SDS011;11254;50.098;8.726;2023-06-24T13:42:34;7.65;;;4.88;;
22176;SDS011;11254;50.098;8.726;2023-06-24T13:45:04;7.15;;;4.57;;
22176;SDS011;11254;50.098;8.726;2023-06-24T13:47:33;7.95;;;4.68;;
22176;SDS011;11254;50.098;8.726;2023-06-24T13:50:01;7.25;;;4.75;;
22176;SDS011;11254;50.098;8.726;2023-06-24T13:52:31;7.78;;;5.15;;
22176;SDS011;11254;50.098;8.726;2023-06-24T13:55:00;7.88;;;4.82;;
22176;SDS011;11254;50.098;8.726;2023-06-24T13:57:28;7.25;;;4.82;;
22176;SDS011;11254;50.098;8.726;2023-06-24T13:59:57;6.80;;;4.43;;
22176;SDS011;11254;50.098;8.726;2023-06-24T14:02:25;7.05;;;4.60;;
22176;SDS011;11254;50.098;8.726;2023-06-24T14:08:44;7.13;;;4.70;;
22176;SDS011;11254;50.098;8.726;2023-06-24T14:11:13;8.00;;;4.68;;
22176;SDS011;11254;50.098;8.726;2023-06-24T14:13:41;7.93;;;4.35;;
22176;SDS011;11254;50.098;8.726;2023-06-24T14:16:10;7.10;;;4.82;;
22176;SDS011;11254;50.098;8.726;2023-06-24T14:18:39;6.20;;;4.20;;
22176;SDS011;11254;50.098;8.726;2023-06-24T14:21:08;9.13;;;4.75;;
22176;SDS011;11254;50.098;8.726;2023-06-24T14:23:36;8.45;;;5.00;;
22176;SDS011;11254;50.098;8.726;2023-06-24T14:26:08;7.65;;;4.70;;
22176;SDS011;11254;50.098;8.726;2023-06-24T14:28:36;7.22;;;5.00;;
22176;SDS011;11254;50.098;8.726;2023-06-24T14:31:05;8.00;;;5.00;;
22176;SDS011;11254;50.098;8.726;2023-06-24T14:33:33;6.95;;;4.57;;
22176;SDS011;11254;50.098;8.726;2023-06-24T14:36:02;9.10;;;4.82;;
22176;SDS011;11254;50.098;8.726;2023-06-24T14:38:30;8.75;;;4.97;;
22176;SDS011;11254;50.098;8.726;2023-06-24T14:40:59;7.32;;;4.88;;
22176;SDS011;11254;50.098;8.726;2023-06-24T14:43:29;8.25;;;5.28;;
22176;SDS011;11254;50.098;8.726;2023-06-24T14:45:57;7.35;;;4.57;;
22176;SDS011;11254;50.098;8.726;2023-06-24T14:48:26;7.22;;;5.38;;
22176;SDS011;11254;50.098;8.726;2023-06-24T14:50:56;7.20;;;4.78;;
22176;SDS011;11254;50.098;8.726;2023-06-24T14:53:25;7.25;;;4.75;;
22176;SDS011;11254;50.098;8.726;2023-06-24T14:55:53;7.00;;;5.13;;
22176;SDS011;11254;50.098;8.726;2023-06-24T14:58:39;6.53;;;4.57;;
22176;SDS011;11254;50.098;8.726;2023-06-24T15:01:33;7.95;;;5.28;;
22176;SDS011;11254;50.098;8.726;2023-06-24T15:04:02;7.15;;;5.18;;
22176;SDS011;11254;50.098;8.726;2023-06-24T15:06:32;6.88;;;4.70;;
22176;SDS011;11254;50.098;8.726;2023-06-24T15:09:00;6.50;;;4.82;;
22176;SDS011;11254;50.098;8.726;2023-06-24T15:11:29;6.53;;;4.63;;
22176;SDS011;11254;50.098;8.726;2023-06-24T15:13:59;6.78;;;4.72;;
